Time;durP1;ratioP1;P1;durP2;ratioP2;P2;SDS_P1;SDS_P2;PMS_P1;PMS_P2;Temp;Humidity;BMP_temperature;BMP_pressure;BME280_temperature;BME280_humidity;BME280_pressure;Samples;Min_cycle;Max_cycle;Signal;HPM_P1;HPM_P2
2021/11/29 00:01:11;;;;;;;14.63;11.70;;;4.00;99.90;;;;;;5067989;28;20262;-73
2021/11/29 00:03:38;;;;;;;14.47;11.07;;;4.00;99.90;;;;;;5068377;28;20223;-73
2021/11/29 00:06:12;;;;;;;14.17;11.23;;;4.00;99.90;;;;;;5068503;28;20230;-73
2021/11/29 00:08:39;;;;;;;13.60;11.03;;;4.00;99.90;;;;;;5068495;28;20321;-73
2021/11/29 00:11:09;;;;;;;16.53;12.00;;;4.00;99.90;;;;;;5068384;28;20286;-73
2021/11/29 00:13:35;;;;;;;15.10;11.50;;;4.00;99.90;;;;;;5068195;28;20678;-73
2021/11/29 00:16:10;;;;;;;13.40;11.50;;;3.90;99.90;;;;;;5068161;28;20246;-73
2021/11/29 00:18:37;;;;;;;17.10;12.03;;;3.80;99.90;;;;;;5068351;28;20206;-74
2021/11/29 00:21:13;;;;;;;14.97;11.17;;;3.70;99.90;;;;;;5067670;28;20213;-75
2021/11/29 00:23:42;;;;;;;14.37;11.80;;;3.60;99.90;;;;;;5068297;28;20238;-75
2021/11/29 00:26:11;;;;;;;17.23;12.33;;;3.70;99.90;;;;;;5068002;28;20227;-74
2021/11/29 00:28:39;;;;;;;15.43;11.50;;;3.70;99.90;;;;;;5068057;28;20254;-75
2021/11/29 00:31:11;;;;;;;15.50;12.27;;;3.80;99.90;;;;;;5071335;28;20207;-75
2021/11/29 00:33:39;;;;;;;14.30;11.77;;;3.80;99.90;;;;;;5072433;28;20286;-74
2021/11/29 00:36:08;;;;;;;17.00;12.43;;;3.70;99.90;;;;;;5071886;28;20213;-75
2021/11/29 00:38:37;;;;;;;17.57;12.30;;;3.70;99.90;;;;;;5072149;28;20314;-74
2021/11/29 00:41:10;;;;;;;17.07;12.47;;;3.60;99.90;;;;;;5072024;28;20211;-75
2021/11/29 00:43:37;;;;;;;18.17;11.97;;;3.60;99.90;;;;;;5071946;28;20242;-75
2021/11/29 00:46:11;;;;;;;17.80;12.40;;;3.60;99.90;;;;;;5071674;28;20298;-74
2021/11/29 00:48:38;;;;;;;18.87;12.63;;;3.60;99.90;;;;;;5072077;28;20195;-74
2021/11/29 00:51:08;;;;;;;16.57;12.40;;;3.60;99.90;;;;;;5071504;28;20203;-73
2021/11/29 00:53:36;;;;;;;15.57;11.43;;;3.60;99.90;;;;;;5071680;28;20290;-73
2021/11/29 00:56:09;;;;;;;20.20;13.00;;;3.60;99.90;;;;;;5071789;28;20219;-73
2021/11/29 00:58:36;;;;;;;14.33;12.20;;;3.50;99.90;;;;;;5071814;28;20282;-73
2021/11/29 01:01:11;;;;;;;17.27;12.60;;;3.60;99.90;;;;;;5071185;28;20282;-73
2021/11/29 01:03:39;;;;;;;16.63;12.10;;;3.60;99.90;;;;;;5071340;28;20288;-74
2021/11/29 01:06:12;;;;;;;15.70;12.27;;;3.60;99.90;;;;;;5071560;28;20230;-73
2021/11/29 01:08:40;;;;;;;18.60;13.40;;;3.50;99.90;;;;;;5071466;28;20292;-73
2021/11/29 01:11:10;;;;;;;18.33;13.13;;;3.40;99.90;;;;;;5071504;28;20571;-74
2021/11/29 01:13:37;;;;;;;20.90;13.13;;;3.30;99.90;;;;;;5071266;28;20242;-74
2021/11/29 01:16:11;;;;;;;20.77;13.57;;;3.20;99.90;;;;;;5071011;28;20714;-73
2021/11/29 01:18:38;;;;;;;20.63;13.47;;;3.20;99.90;;;;;;5071279;28;20266;-73
2021/11/29 01:21:11;;;;;;;19.27;13.80;;;3.30;99.90;;;;;;5071216;28;20310;-73
2021/11/29 01:23:38;;;;;;;20.53;14.47;;;3.30;99.90;;;;;;5070959;28;20569;-73
2021/11/29 01:26:12;;;;;;;20.00;13.83;;;3.30;99.90;;;;;;5070611;28;20223;-73
2021/11/29 01:28:39;;;;;;;19.60;13.80;;;3.30;99.90;;;;;;5071073;28;20744;-73
2021/11/29 01:31:12;;;;;;;18.03;13.40;;;3.40;99.90;;;;;;5071100;28;20206;-74
2021/11/29 01:33:39;;;;;;;22.00;14.80;;;3.30;99.90;;;;;;5071214;28;20231;-74
2021/11/29 01:36:12;;;;;;;19.70;14.10;;;3.30;99.90;;;;;;5071110;28;20246;-73
2021/11/29 01:38:40;;;;;;;21.77;14.70;;;3.30;99.90;;;;;;5071097;28;20315;-73
2021/11/29 01:41:16;;;;;;;21.13;14.33;;;3.20;99.90;;;;;;5069778;28;20238;-73
2021/11/29 01:43:43;;;;;;;23.17;15.87;;;3.20;99.90;;;;;;5070814;28;20202;-73
2021/11/29 01:46:10;;;;;;;24.93;15.93;;;3.30;99.90;;;;;;5070965;28;20298;-73
2021/11/29 01:48:37;;;;;;;23.67;15.87;;;3.20;99.90;;;;;;5070576;28;20200;-73
2021/11/29 01:51:13;;;;;;;24.73;15.90;;;3.10;99.90;;;;;;5070667;28;20247;-73
2021/11/29 01:53:41;;;;;;;25.60;16.23;;;3.10;99.90;;;;;;5070481;28;20859;-74
2021/11/29 01:56:11;;;;;;;26.80;16.60;;;3.10;99.90;;;;;;5070462;28;20203;-74
2021/11/29 01:58:41;;;;;;;24.20;15.83;;;3.20;99.90;;;;;;5070631;28;20324;-74
2021/11/29 02:01:14;;;;;;;26.77;15.97;;;3.10;99.90;;;;;;5070009;28;20507;-74
2021/11/29 02:03:42;;;;;;;25.47;16.70;;;3.20;99.90;;;;;;5070188;28;20227;-74
2021/11/29 02:06:16;;;;;;;22.87;15.77;;;3.10;99.90;;;;;;5070060;28;20702;-74
2021/11/29 02:08:43;;;;;;;24.60;16.40;;;3.20;99.90;;;;;;5070534;28;20214;-74
2021/11/29 02:11:10;;;;;;;26.33;16.33;;;3.20;99.90;;;;;;5069931;28;20674;-75
2021/11/29 02:13:37;;;;;;;26.93;16.90;;;3.20;99.90;;;;;;5070077;28;20294;-74
2021/11/29 02:16:13;;;;;;;27.10;17.27;;;3.00;99.90;;;;;;5069925;28;20208;-74
2021/11/29 02:18:40;;;;;;;29.03;17.93;;;3.00;99.90;;;;;;5070313;28;20313;-74
2021/11/29 02:21:14;;;;;;;29.43;16.63;;;2.90;99.90;;;;;;5070189;28;20209;-75
2021/11/29 02:23:43;;;;;;;25.97;17.17;;;2.90;99.90;;;;;;5069943;28;20634;-74
2021/11/29 02:26:11;;;;;;;27.80;17.73;;;2.90;99.90;;;;;;5069938;28;20316;-72
2021/11/29 02:28:45;;;;;;;28.53;17.63;;;2.90;99.90;;;;;;5070234;28;20231;-73
2021/11/29 02:31:15;;;;;;;28.93;17.23;;;2.90;99.90;;;;;;5069818;28;20732;-73
2021/11/29 02:33:42;;;;;;;32.67;18.50;;;2.80;99.90;;;;;;5070135;28;20208;-73
2021/11/29 02:36:13;;;;;;;30.90;18.17;;;2.80;99.90;;;;;;5069847;28;20215;-73
2021/11/29 02:38:41;;;;;;;29.17;17.73;;;2.80;99.90;;;;;;5069767;28;20696;-72
2021/11/29 02:41:11;;;;;;;29.60;17.73;;;2.70;99.90;;;;;;5069318;28;20224;-72
2021/11/29 02:43:38;;;;;;;30.00;18.90;;;2.90;99.90;;;;;;5069812;28;20235;-73
2021/11/29 02:46:09;;;;;;;29.77;18.10;;;2.90;99.90;;;;;;5069664;28;20290;-73
2021/11/29 02:48:40;;;;;;;29.50;18.13;;;2.80;99.90;;;;;;5069354;28;20252;-74
2021/11/29 02:51:24;;;;;;;30.90;19.17;;;2.80;99.90;;;;;;5069818;28;20283;-74
2021/11/29 02:53:54;;;;;;;31.73;18.77;;;2.80;99.90;;;;;;5067659;28;20288;-73
2021/11/29 02:56:21;;;;;;;34.50;18.70;;;2.80;99.90;;;;;;5069529;28;20249;-73
2021/11/29 02:58:48;;;;;;;33.33;19.17;;;2.80;99.90;;;;;;5069421;28;20313;-73
2021/11/29 03:01:15;;;;;;;31.67;18.40;;;2.80;99.90;;;;;;5068898;28;20333;-73
2021/11/29 03:03:46;;;;;;;32.40;18.43;;;2.80;99.90;;;;;;5069156;28;20670;-74
2021/11/29 03:06:13;;;;;;;33.53;18.47;;;2.90;99.90;;;;;;5068820;28;20223;-74
2021/11/29 03:08:42;;;;;;;32.77;18.73;;;2.90;99.90;;;;;;5068683;28;20303;-74
2021/11/29 03:11:13;;;;;;;32.20;18.23;;;2.80;99.90;;;;;;5068746;28;20681;-74
2021/11/29 03:13:40;;;;;;;35.70;20.30;;;2.80;99.90;;;;;;5069425;28;20243;-74
2021/11/29 03:16:13;;;;;;;32.33;19.43;;;2.80;99.90;;;;;;5068992;28;20296;-74
2021/11/29 03:18:43;;;;;;;30.77;18.27;;;2.90;99.90;;;;;;5068917;28;20301;-74
2021/11/29 03:21:16;;;;;;;37.83;20.17;;;3.00;99.90;;;;;;5068722;28;20207;-73
2021/11/29 03:23:45;;;;;;;32.23;18.20;;;2.90;99.90;;;;;;5068885;28;20203;-74
2021/11/29 03:26:17;;;;;;;31.57;19.23;;;3.00;99.90;;;;;;5068835;28;20258;-72
2021/11/29 03:28:45;;;;;;;31.43;18.80;;;3.10;99.90;;;;;;5069130;28;20282;-77
2021/11/29 03:31:13;;;;;;;29.90;18.93;;;3.10;99.90;;;;;;5068636;28;20258;-72
2021/11/29 03:33:41;;;;;;;29.40;17.97;;;3.10;99.90;;;;;;5068758;28;20295;-72
2021/11/29 03:36:11;;;;;;;29.03;18.23;;;3.10;99.90;;;;;;5066053;28;20238;-71
2021/11/29 03:38:39;;;;;;;31.90;18.60;;;3.20;99.90;;;;;;5066777;28;20319;-71
2021/11/29 03:41:13;;;;;;;29.67;18.10;;;3.20;99.90;;;;;;5066543;28;20227;-71
2021/11/29 03:43:40;;;;;;;30.70;18.03;;;3.20;99.90;;;;;;5066846;28;20241;-72
2021/11/29 03:46:10;;;;;;;31.93;19.00;;;3.10;99.90;;;;;;5066002;28;20294;-72
2021/11/29 03:48:37;;;;;;;30.27;18.13;;;3.20;99.90;;;;;;5065779;28;20319;-74
2021/11/29 03:51:13;;;;;;;32.03;18.60;;;3.10;99.90;;;;;;5066176;28;20302;-74
2021/11/29 03:53:40;;;;;;;32.40;19.10;;;3.20;99.90;;;;;;5066659;28;20227;-74
2021/11/29 03:56:15;;;;;;;31.53;18.33;;;3.10;99.90;;;;;;5066620;28;20243;-72
2021/11/29 03:58:42;;;;;;;33.63;19.20;;;3.20;99.90;;;;;;5066447;28;20573;-72
2021/11/29 04:01:11;;;;;;;31.37;19.50;;;3.20;99.90;;;;;;5066034;28;20322;-72
2021/11/29 04:03:39;;;;;;;32.00;19.43;;;3.20;99.90;;;;;;5066331;28;20345;-70
2021/11/29 04:06:15;;;;;;;33.50;19.23;;;3.20;99.90;;;;;;5065616;28;20272;-71
2021/11/29 04:08:42;;;;;;;37.10;20.20;;;3.20;99.90;;;;;;5061934;28;20385;-71
2021/11/29 04:11:12;;;;;;;32.33;19.40;;;3.20;99.90;;;;;;5047322;28;20204;-71
2021/11/29 04:13:42;;;;;;;30.40;19.43;;;3.20;99.90;;;;;;5047658;28;20734;-71
2021/11/29 04:16:15;;;;;;;33.83;20.13;;;3.20;99.90;;;;;;5048142;28;20287;-71
2021/11/29 04:18:42;;;;;;;31.23;18.77;;;3.10;99.90;;;;;;5048133;28;20235;-71
2021/11/29 04:21:14;;;;;;;36.03;20.20;;;3.10;99.90;;;;;;5047727;28;20690;-71
2021/11/29 04:23:44;;;;;;;34.27;19.53;;;3.10;99.90;;;;;;5047809;28;20235;-71
2021/11/29 04:26:16;;;;;;;33.23;20.47;;;3.00;99.90;;;;;;5047944;28;20235;-71
2021/11/29 04:28:45;;;;;;;33.67;19.53;;;3.00;99.90;;;;;;5047984;28;20293;-71
2021/11/29 04:31:14;;;;;;;31.80;18.87;;;3.00;99.90;;;;;;5047976;28;20211;-71
2021/11/29 04:33:41;;;;;;;30.30;18.53;;;3.00;99.90;;;;;;5048186;28;20208;-71
2021/11/29 04:36:11;;;;;;;31.60;19.80;;;3.10;99.90;;;;;;5047769;28;20254;-71
2021/11/29 04:38:38;;;;;;;31.13;18.87;;;3.10;99.90;;;;;;5047750;28;20317;-71
2021/11/29 04:41:14;;;;;;;31.67;18.77;;;3.00;99.90;;;;;;5047690;28;20224;-71
2021/11/29 04:43:41;;;;;;;31.73;19.83;;;3.00;99.90;;;;;;5048038;28;20228;-71
2021/11/29 04:46:16;;;;;;;33.57;20.27;;;3.00;99.90;;;;;;5047491;28;20303;-71
2021/11/29 04:48:43;;;;;;;30.33;19.13;;;3.00;99.90;;;;;;5047873;28;20258;-71
2021/11/29 04:51:12;;;;;;;30.13;18.90;;;3.00;99.90;;;;;;5047395;28;20300;-71
2021/11/29 04:53:41;;;;;;;30.40;19.60;;;3.10;99.90;;;;;;5047640;28;20626;-71
2021/11/29 04:56:14;;;;;;;33.30;19.87;;;3.00;99.90;;;;;;5047551;28;20216;-71
2021/11/29 04:58:41;;;;;;;33.33;20.00;;;3.10;99.90;;;;;;5047723;28;20256;-71
2021/11/29 05:01:15;;;;;;;31.93;19.17;;;3.10;99.90;;;;;;5047339;28;20702;-71
2021/11/29 05:03:42;;;;;;;31.50;20.07;;;3.00;99.90;;;;;;5047807;28;20262;-71
2021/11/29 05:06:15;;;;;;;31.60;19.40;;;3.00;99.90;;;;;;5047193;28;20220;-71
2021/11/29 05:08:42;;;;;;;31.87;19.40;;;3.10;99.90;;;;;;5047565;28;20261;-71
2021/11/29 05:11:15;;;;;;;32.77;19.17;;;3.10;99.90;;;;;;5047359;28;20662;-71
2021/11/29 05:13:43;;;;;;;30.57;19.93;;;3.10;99.90;;;;;;5047590;28;20236;-71
2021/11/29 05:16:14;;;;;;;30.87;19.77;;;3.10;99.90;;;;;;5049147;28;20314;-71
2021/11/29 05:18:41;;;;;;;29.63;18.40;;;3.10;99.90;;;;;;5050940;28;20683;-71
2021/11/29 05:21:11;;;;;;;32.73;19.43;;;3.10;99.90;;;;;;5051267;28;20204;-71
2021/11/29 05:23:38;;;;;;;30.70;20.80;;;3.10;99.90;;;;;;5050968;28;20605;-71
2021/11/29 05:26:14;;;;;;;29.70;19.00;;;3.00;99.90;;;;;;5051274;28;20664;-71
2021/11/29 05:28:41;;;;;;;32.80;19.37;;;3.10;99.90;;;;;;5050941;28;20665;-71
2021/11/29 05:31:16;;;;;;;32.07;19.77;;;3.10;99.90;;;;;;5050996;28;20208;-71
2021/11/29 05:33:43;;;;;;;37.77;21.70;;;3.00;99.90;;;;;;5051278;28;20227;-71
2021/11/29 05:36:13;;;;;;;33.10;21.27;;;3.00;99.90;;;;;;5051041;28;20295;-71
2021/11/29 05:38:40;;;;;;;33.57;21.53;;;3.00;99.90;;;;;;5050604;28;20654;-71
2021/11/29 05:41:16;;;;;;;34.83;20.83;;;3.10;99.90;;;;;;5050672;28;20272;-71
2021/11/29 05:43:43;;;;;;;37.67;22.23;;;3.00;99.90;;;;;;5050492;28;20258;-71
2021/11/29 05:46:18;;;;;;;33.87;20.27;;;3.10;99.90;;;;;;5050691;28;20349;-71
2021/11/29 05:48:45;;;;;;;30.50;18.27;;;3.20;99.90;;;;;;5050566;28;20192;-71
2021/11/29 05:51:12;;;;;;;30.23;20.23;;;3.20;99.90;;;;;;5050550;28;20262;-71
2021/11/29 05:53:39;;;;;;;32.90;19.93;;;3.10;99.90;;;;;;5050692;28;20257;-71
2021/11/29 05:56:16;;;;;;;29.00;19.27;;;3.20;99.90;;;;;;5050146;28;20748;-71
2021/11/29 05:58:43;;;;;;;29.10;19.10;;;3.20;99.90;;;;;;5050313;28;20310;-71
2021/11/29 06:01:18;;;;;;;28.70;18.77;;;3.10;99.90;;;;;;5049940;28;20919;-71
2021/11/29 06:03:45;;;;;;;30.47;18.83;;;3.20;99.90;;;;;;5050518;28;20228;-71
2021/11/29 06:06:12;;;;;;;29.07;18.27;;;3.10;99.90;;;;;;5049641;28;20228;-71
2021/11/29 06:08:39;;;;;;;29.47;19.17;;;3.10;99.90;;;;;;5050475;28;20621;-71
2021/11/29 06:11:12;;;;;;;27.77;19.07;;;3.10;99.90;;;;;;5070033;28;20253;-71
2021/11/29 06:13:39;;;;;;;32.03;19.50;;;3.10;99.90;;;;;;5070078;28;20269;-71
2021/11/29 06:16:15;;;;;;;27.13;17.97;;;3.10;99.90;;;;;;5070141;28;20212;-71
2021/11/29 06:18:44;;;;;;;26.93;18.27;;;3.20;99.90;;;;;;5069956;28;20754;-71
2021/11/29 06:21:14;;;;;;;29.80;18.37;;;3.20;99.90;;;;;;5070081;28;20238;-71
2021/11/29 06:23:41;;;;;;;26.80;19.03;;;3.30;99.90;;;;;;5069905;28;20206;-71
2021/11/29 06:26:13;;;;;;;28.63;18.23;;;3.20;99.90;;;;;;5069867;28;20235;-71
2021/11/29 06:28:40;;;;;;;27.27;19.07;;;3.10;99.90;;;;;;5069830;28;20317;-71
2021/11/29 06:31:10;;;;;;;29.93;18.87;;;3.00;99.90;;;;;;5069996;28;20227;-71
2021/11/29 06:33:37;;;;;;;25.33;17.73;;;3.00;99.90;;;;;;5070242;28;20257;-71
2021/11/29 06:36:15;;;;;;;28.93;18.20;;;3.00;99.90;;;;;;5069436;28;20844;-71
2021/11/29 06:38:42;;;;;;;27.70;17.70;;;3.00;99.90;;;;;;5069841;28;20318;-71
2021/11/29 06:41:12;;;;;;;27.13;17.83;;;3.00;99.90;;;;;;5069563;28;20313;-71
2021/11/29 06:43:39;;;;;;;32.57;19.40;;;3.10;99.90;;;;;;5069512;28;20257;-71
2021/11/29 06:46:15;;;;;;;27.43;18.23;;;3.10;99.90;;;;;;5069549;28;20251;-71
2021/11/29 06:48:42;;;;;;;28.63;18.77;;;3.20;99.90;;;;;;5069544;28;20318;-71
2021/11/29 06:51:17;;;;;;;22.97;17.03;;;3.20;99.90;;;;;;5069408;28;20736;-71
2021/11/29 06:53:44;;;;;;;26.10;17.43;;;3.10;99.90;;;;;;5069344;28;20203;-71
2021/11/29 06:56:14;;;;;;;24.53;16.10;;;3.10;99.90;;;;;;5069123;28;21040;-71
2021/11/29 06:58:41;;;;;;;26.37;17.63;;;3.10;99.90;;;;;;5069312;28;20666;-71
2021/11/29 07:01:14;;;;;;;25.37;17.20;;;3.00;99.90;;;;;;5069027;28;20318;-71
2021/11/29 07:03:42;;;;;;;26.73;18.37;;;3.00;99.90;;;;;;5068927;28;20259;-71
2021/11/29 07:06:16;;;;;;;25.37;17.50;;;3.00;99.90;;;;;;5069029;28;20248;-71
2021/11/29 07:08:43;;;;;;;24.83;17.37;;;3.10;99.90;;;;;;5069211;28;20617;-71
2021/11/29 07:11:13;;;;;;;25.00;17.50;;;3.10;99.90;;;;;;5068934;28;20241;-71
2021/11/29 07:13:40;;;;;;;23.70;16.53;;;3.10;99.90;;;;;;5068723;28;20731;-71
2021/11/29 07:16:14;;;;;;;21.83;15.80;;;3.20;99.90;;;;;;5069259;28;20631;-71
2021/11/29 07:18:41;;;;;;;23.30;17.03;;;3.30;99.90;;;;;;5069172;28;20247;-71
2021/11/29 07:21:15;;;;;;;23.77;15.80;;;3.40;99.90;;;;;;5069075;28;20246;-71
2021/11/29 07:23:42;;;;;;;25.60;16.47;;;3.40;99.90;;;;;;5068686;28;20338;-71
2021/11/29 07:26:16;;;;;;;21.90;15.50;;;3.40;99.90;;;;;;5068514;28;20310;-71
2021/11/29 07:28:43;;;;;;;21.50;15.80;;;3.40;99.90;;;;;;5068970;28;20218;-71
2021/11/29 07:31:13;;;;;;;20.60;15.23;;;3.40;99.90;;;;;;5068308;28;20239;-71
2021/11/29 07:33:40;;;;;;;21.10;14.90;;;3.30;99.90;;;;;;5068705;28;20661;-71
2021/11/29 07:38:49;;;;;;;21.27;15.63;;;3.30;99.90;;;;;;5065917;28;20243;-71
2021/11/29 07:41:15;;;;;;;21.57;15.43;;;3.30;99.90;;;;;;5068330;28;20310;-71
2021/11/29 07:43:42;;;;;;;21.97;15.83;;;3.30;99.90;;;;;;5068382;28;20696;-71
2021/11/29 07:46:16;;;;;;;23.10;15.97;;;3.30;99.90;;;;;;5068657;28;20425;-71
2021/11/29 07:48:42;;;;;;;23.27;16.00;;;3.30;99.90;;;;;;5068403;28;20673;-71
2021/11/29 07:51:15;;;;;;;20.70;15.17;;;3.20;99.90;;;;;;5068488;28;20300;-71
2021/11/29 07:53:42;;;;;;;24.27;16.57;;;3.20;99.90;;;;;;5068497;28;20294;-71
2021/11/29 07:56:16;;;;;;;24.23;15.40;;;3.20;99.90;;;;;;5068145;28;20696;-71
2021/11/29 07:58:43;;;;;;;22.80;14.90;;;3.30;99.90;;;;;;5068544;28;20294;-71
2021/11/29 08:01:13;;;;;;;23.43;15.33;;;3.30;99.90;;;;;;5067955;28;20329;-71
2021/11/29 08:03:40;;;;;;;23.97;16.17;;;3.30;99.90;;;;;;5068403;28;20231;-71
2021/11/29 08:06:13;;;;;;;24.30;15.43;;;3.30;99.90;;;;;;5068131;28;20240;-71
2021/11/29 08:08:42;;;;;;;24.70;16.77;;;3.20;99.90;;;;;;5068211;28;20234;-71
2021/11/29 08:11:13;;;;;;;22.13;15.23;;;3.20;99.90;;;;;;5068349;28;20298;-71
2021/11/29 08:13:41;;;;;;;24.97;16.97;;;3.10;99.90;;;;;;5068268;28;20211;-71
2021/11/29 08:16:14;;;;;;;24.83;16.20;;;3.00;99.90;;;;;;5068092;28;20250;-71
2021/11/29 08:18:41;;;;;;;25.63;17.87;;;3.00;99.90;;;;;;5067867;28;20223;-71
2021/11/29 08:21:17;;;;;;;26.80;17.23;;;3.10;99.90;;;;;;5067873;28;20702;-71
2021/11/29 08:23:44;;;;;;;23.73;15.97;;;3.10;99.90;;;;;;5067991;28;20227;-71
2021/11/29 08:26:17;;;;;;;24.67;16.93;;;3.20;99.90;;;;;;5068080;28;20664;-70
2021/11/29 08:28:45;;;;;;;21.53;15.37;;;3.10;99.90;;;;;;5068120;28;20292;-71
2021/11/29 08:31:12;;;;;;;23.97;16.53;;;3.20;99.90;;;;;;5067807;28;20280;-71
2021/11/29 08:33:39;;;;;;;24.00;17.03;;;3.20;99.90;;;;;;5068113;28;20234;-71
2021/11/29 08:36:16;;;;;;;24.43;16.97;;;3.20;99.90;;;;;;5067760;28;20207;-71
2021/11/29 08:38:43;;;;;;;24.50;17.10;;;3.10;99.90;;;;;;5067569;28;20250;-71
2021/11/29 08:41:12;;;;;;;25.90;17.83;;;3.20;99.90;;;;;;5067749;28;20664;-71
2021/11/29 08:43:39;;;;;;;27.83;17.23;;;3.20;99.90;;;;;;5068002;28;20286;-71
2021/11/29 08:46:14;;;;;;;26.10;17.27;;;3.10;99.90;;;;;;5067496;28;20739;-71
2021/11/29 08:48:40;;;;;;;26.40;17.77;;;3.10;99.90;;;;;;5067902;28;20742;-71
2021/11/29 08:51:17;;;;;;;28.30;17.57;;;3.10;99.90;;;;;;5069125;28;20203;-71
2021/11/29 08:53:45;;;;;;;26.13;17.80;;;3.10;99.90;;;;;;5071650;28;20677;-71
2021/11/29 08:56:15;;;;;;;26.23;17.63;;;3.20;99.90;;;;;;5071409;28;20680;-71
2021/11/29 08:58:44;;;;;;;27.43;18.07;;;3.20;99.90;;;;;;5071455;28;20670;-71
2021/11/29 09:01:16;;;;;;;28.50;18.27;;;3.10;99.90;;;;;;5071133;28;20313;-71
2021/11/29 09:03:43;;;;;;;27.97;17.97;;;3.10;99.90;;;;;;5071906;28;20291;-71
2021/11/29 09:06:19;;;;;;;30.03;18.20;;;3.10;99.90;;;;;;5071483;28;20306;-71
2021/11/29 09:08:46;;;;;;;28.57;18.00;;;3.10;99.90;;;;;;5071362;28;20622;-71
2021/11/29 09:11:16;;;;;;;29.53;18.27;;;3.10;99.90;;;;;;5071235;28;20722;-71
2021/11/29 09:13:45;;;;;;;28.77;18.03;;;3.10;99.90;;;;;;5071494;28;20207;-71
2021/11/29 09:16:18;;;;;;;29.77;19.33;;;3.10;99.90;;;;;;5071341;28;20239;-71
2021/11/29 09:18:45;;;;;;;31.10;19.20;;;3.10;99.90;;;;;;5071083;28;20247;-71
2021/11/29 09:21:17;;;;;;;31.50;19.07;;;3.20;99.90;;;;;;5071230;28;20316;-70
2021/11/29 09:23:45;;;;;;;31.87;18.37;;;3.20;99.90;;;;;;5071237;28;20259;-71
2021/11/29 09:26:13;;;;;;;26.50;18.33;;;3.20;99.90;;;;;;5070762;28;20215;-71
2021/11/29 09:28:40;;;;;;;28.87;18.47;;;3.30;99.90;;;;;;5071086;28;20301;-71
2021/11/29 09:31:13;;;;;;;26.63;17.33;;;3.20;99.90;;;;;;5071214;28;20242;-71
2021/11/29 09:33:41;;;;;;;28.83;18.00;;;3.20;99.90;;;;;;5071061;28;20251;-71
2021/11/29 09:36:14;;;;;;;27.17;16.83;;;3.30;99.90;;;;;;5070830;28;20209;-71
2021/11/29 09:38:41;;;;;;;26.83;17.63;;;3.30;99.90;;;;;;5070677;28;20681;-71
2021/11/29 09:41:19;;;;;;;25.67;17.70;;;3.20;99.90;;;;;;5070374;28;20235;-71
2021/11/29 09:43:47;;;;;;;28.20;17.83;;;3.20;99.90;;;;;;5071234;28;20554;-71
2021/11/29 09:46:16;;;;;;;30.60;19.57;;;3.30;99.90;;;;;;5070311;28;20251;-71
2021/11/29 09:48:45;;;;;;;29.07;18.30;;;3.30;99.90;;;;;;5070105;28;20301;-71
2021/11/29 09:51:12;;;;;;;26.97;17.43;;;3.40;99.90;;;;;;5070124;28;20870;-71
2021/11/29 09:53:39;;;;;;;27.07;17.17;;;3.40;99.90;;;;;;5069984;28;20842;-71
2021/11/29 09:56:16;;;;;;;26.47;17.27;;;3.40;99.90;;;;;;5070443;28;20290;-71
2021/11/29 09:58:43;;;;;;;25.90;16.93;;;3.40;99.90;;;;;;5070209;28;20199;-71
2021/11/29 10:01:17;;;;;;;27.10;17.63;;;3.50;99.90;;;;;;5069587;28;20240;-71
2021/11/29 10:03:45;;;;;;;29.90;19.00;;;3.50;99.90;;;;;;5069191;28;20290;-71
2021/11/29 10:06:15;;;;;;;24.63;17.40;;;3.50;99.90;;;;;;5070226;28;20298;-71
2021/11/29 10:08:42;;;;;;;26.03;16.67;;;3.30;99.90;;;;;;5070404;28;20231;-71
2021/11/29 10:11:18;;;;;;;25.80;17.00;;;3.40;99.90;;;;;;5069913;28;20809;-71
2021/11/29 10:13:47;;;;;;;23.97;15.50;;;3.40;99.90;;;;;;5070037;28;20203;-71
2021/11/29 10:16:38;;;;;;;26.07;16.17;;;3.50;99.90;;;;;;5069812;28;20204;-71
2021/11/29 10:19:09;;;;;;;22.80;15.27;;;3.50;99.90;;;;;;5070039;28;20204;-71
2021/11/29 10:21:36;;;;;;;25.20;16.20;;;3.50;99.90;;;;;;5070347;28;20286;-71
2021/11/29 10:24:04;;;;;;;24.47;15.87;;;3.50;99.90;;;;;;5069625;28;20277;-71
2021/11/29 10:26:33;;;;;;;23.20;15.77;;;3.60;99.90;;;;;;5070185;28;20289;-71
2021/11/29 10:29:02;;;;;;;21.57;15.20;;;3.60;99.90;;;;;;5069845;28;20713;-71
2021/11/29 10:31:31;;;;;;;22.93;15.60;;;3.60;99.90;;;;;;5069834;28;20302;-71
2021/11/29 10:34:02;;;;;;;23.83;16.07;;;3.70;99.90;;;;;;5069965;28;20264;-71
2021/11/29 10:36:33;;;;;;;20.40;15.00;;;3.70;99.90;;;;;;5069963;28;20192;-71
2021/11/29 10:39:04;;;;;;;23.77;15.47;;;3.80;99.90;;;;;;5069965;28;20227;-71
2021/11/29 10:41:33;;;;;;;20.43;14.73;;;3.80;99.90;;;;;;5069839;28;20234;-71
2021/11/29 10:44:02;;;;;;;20.17;14.17;;;3.80;99.90;;;;;;5069334;28;20309;-71
2021/11/29 10:46:32;;;;;;;20.37;14.77;;;3.80;99.90;;;;;;5069607;28;20259;-71
2021/11/29 10:49:01;;;;;;;19.77;14.37;;;3.80;99.90;;;;;;5069676;28;20761;-71
2021/11/29 10:51:30;;;;;;;26.03;14.90;;;3.80;99.90;;;;;;5069466;28;20246;-71
2021/11/29 10:54:00;;;;;;;22.07;14.67;;;3.60;99.90;;;;;;5069352;28;20628;-71
2021/11/29 10:56:29;;;;;;;22.87;15.43;;;3.50;99.90;;;;;;5069374;28;20298;-71
2021/11/29 10:58:58;;;;;;;22.20;14.93;;;3.40;99.90;;;;;;5069489;28;20283;-71
2021/11/29 11:01:43;;;;;;;22.93;15.03;;;3.50;99.90;;;;;;5068499;28;20788;-71
2021/11/29 11:04:15;;;;;;;19.67;14.00;;;3.50;99.90;;;;;;5069172;28;20314;-71
2021/11/29 11:06:45;;;;;;;20.07;13.10;;;3.50;99.90;;;;;;5069388;28;20234;-71
2021/11/29 11:09:15;;;;;;;19.67;13.70;;;3.50;99.90;;;;;;5068936;28;20247;-71
2021/11/29 11:11:44;;;;;;;21.90;13.83;;;3.60;99.90;;;;;;5068838;28;20860;-71
2021/11/29 11:14:14;;;;;;;21.27;14.27;;;3.60;99.90;;;;;;5068694;28;20634;-71
2021/11/29 11:17:01;;;;;;;20.10;13.33;;;3.60;99.90;;;;;;5068570;28;20706;-71
2021/11/29 11:19:34;;;;;;;22.27;13.87;;;3.60;99.90;;;;;;5068424;28;20332;-71
2021/11/29 11:22:12;;;;;;;18.63;13.37;;;3.60;99.90;;;;;;5068585;28;20305;-71
2021/11/29 11:24:41;;;;;;;22.07;14.10;;;3.60;99.90;;;;;;5068916;28;20216;-71
2021/11/29 11:27:09;;;;;;;22.73;13.93;;;3.60;99.90;;;;;;5068189;28;20298;-71
2021/11/29 11:29:42;;;;;;;17.93;12.67;;;3.60;99.90;;;;;;5068580;28;20267;-71
2021/11/29 11:32:14;;;;;;;20.20;13.37;;;3.70;99.90;;;;;;5068256;28;20287;-71
2021/11/29 11:34:46;;;;;;;17.43;12.37;;;3.60;99.90;;;;;;5068842;28;20230;-71
2021/11/29 11:37:16;;;;;;;17.87;12.43;;;3.60;99.90;;;;;;5068111;28;20195;-71
2021/11/29 11:39:44;;;;;;;17.27;11.53;;;3.70;99.90;;;;;;5068479;28;20286;-71
2021/11/29 11:42:12;;;;;;;18.87;11.47;;;3.70;99.90;;;;;;5068266;28;20208;-71
2021/11/29 11:44:40;;;;;;;17.60;12.07;;;3.70;99.90;;;;;;5068788;28;20611;-71
2021/11/29 11:47:09;;;;;;;17.50;11.63;;;3.70;99.90;;;;;;5068440;28;20631;-72
2021/11/29 11:49:38;;;;;;;14.97;10.60;;;3.80;99.90;;;;;;5068727;28;20215;-71
2021/11/29 11:52:08;;;;;;;12.33;9.47;;;3.80;99.90;;;;;;5068572;28;20290;-71
2021/11/29 11:54:40;;;;;;;14.10;9.30;;;3.90;99.90;;;;;;5068257;28;20208;-71
2021/11/29 11:57:09;;;;;;;12.30;9.10;;;3.90;99.90;;;;;;5068161;28;20202;-71
2021/11/29 11:59:46;;;;;;;10.57;8.23;;;3.90;99.90;;;;;;5068308;28;20624;-71
2021/11/29 12:02:17;;;;;;;11.57;8.80;;;3.90;99.90;;;;;;5068218;28;20258;-71
2021/11/29 12:04:44;;;;;;;10.13;8.03;;;4.00;99.90;;;;;;5067757;28;20227;-71
2021/11/29 12:07:11;;;;;;;8.57;7.00;;;3.90;99.90;;;;;;5067691;28;20203;-71
2021/11/29 12:09:44;;;;;;;9.47;7.80;;;4.00;99.90;;;;;;5067771;28;20239;-71
2021/11/29 12:12:10;;;;;;;8.47;7.23;;;4.00;99.90;;;;;;5067762;28;20327;-71
2021/11/29 12:14:37;;;;;;;9.50;7.30;;;4.10;99.90;;;;;;5068345;28;20241;-71
2021/11/29 12:17:20;;;;;;;8.63;7.43;;;4.10;99.90;;;;;;5067962;28;20208;-71
2021/11/29 12:19:47;;;;;;;8.90;7.03;;;4.10;99.90;;;;;;5067649;28;20234;-71
2021/11/29 12:22:34;;;;;;;9.97;7.57;;;4.00;99.90;;;;;;5067933;28;20228;-71
2021/11/29 12:25:21;;;;;;;8.73;7.23;;;4.10;99.90;;;;;;5067591;28;20345;-71
2021/11/29 12:27:50;;;;;;;8.47;6.50;;;4.30;99.90;;;;;;5067667;28;20899;-71
2021/11/29 12:30:32;;;;;;;7.20;6.23;;;4.70;99.90;;;;;;5067703;28;20272;-71
2021/11/29 12:33:02;;;;;;;7.73;6.43;;;4.90;99.90;;;;;;5067862;28;20195;-71
2021/11/29 12:35:35;;;;;;;9.23;6.93;;;5.20;99.90;;;;;;5067356;28;20607;-71
2021/11/29 12:38:05;;;;;;;9.73;8.00;;;5.40;99.90;;;;;;5067545;28;20323;-71
2021/11/29 12:40:47;;;;;;;7.87;6.23;;;5.20;99.90;;;;;;5067985;28;20262;-71
2021/11/29 12:43:41;;;;;;;8.50;7.17;;;5.30;99.90;;;;;;5067563;28;20195;-71
2021/11/29 12:46:20;;;;;;;9.37;6.83;;;5.60;99.90;;;;;;5067517;28;20199;-71
2021/11/29 12:48:47;;;;;;;8.10;6.93;;;5.60;99.90;;;;;;5067408;28;20788;-71
2021/11/29 12:51:14;;;;;;;7.10;5.83;;;5.50;99.90;;;;;;5067173;28;20658;-71
2021/11/29 12:53:41;;;;;;;5.87;5.20;;;5.20;99.90;;;;;;5067433;28;20239;-71
2021/11/29 12:56:20;;;;;;;9.83;6.30;;;4.90;99.90;;;;;;5067119;28;20298;-71